createdAt,value
2023-12-17T00:00:07.740Z,99644.38
2023-12-17T00:02:39.208Z,99646.00
2023-12-17T00:05:08.337Z,99661.41
2023-12-17T00:07:37.328Z,99674.63
2023-12-17T00:10:07.828Z,99668.75
2023-12-17T00:12:35.927Z,99660.16
2023-12-17T00:15:04.802Z,99651.41
2023-12-17T00:17:33.233Z,99653.88
2023-12-17T00:20:01.458Z,99654.59
2023-12-17T00:22:29.597Z,99653.94
2023-12-17T00:24:57.684Z,99658.75
2023-12-17T00:27:27.175Z,99661.41
2023-12-17T00:29:55.329Z,99669.31
2023-12-17T00:32:23.489Z,99677.44
2023-12-17T00:34:51.614Z,99674.97
2023-12-17T00:37:21.097Z,99664.09
2023-12-17T00:39:49.199Z,99666.66
2023-12-17T00:42:17.370Z,99665.88
2023-12-17T00:44:47.473Z,99660.34
2023-12-17T00:47:15.609Z,99653.03
2023-12-17T00:49:44.221Z,99657.19
2023-12-17T00:52:12.887Z,99652.16
2023-12-17T00:54:40.991Z,99654.94
2023-12-17T00:57:09.065Z,99655.53
2023-12-17T00:59:37.671Z,99648.34
2023-12-17T01:02:07.336Z,99650.81
2023-12-17T01:04:35.431Z,99657.50
2023-12-17T01:07:03.544Z,99661.91
2023-12-17T01:09:31.685Z,99655.13
2023-12-17T01:12:04.164Z,99659.22
2023-12-17T01:14:36.006Z,99658.53
2023-12-17T01:17:04.361Z,99663.41
2023-12-17T01:19:36.445Z,99657.38
2023-12-17T01:22:05.114Z,99654.41
2023-12-17T01:24:33.240Z,99649.72
2023-12-17T01:27:01.425Z,99641.72
2023-12-17T01:29:30.002Z,99644.78
2023-12-17T01:31:59.025Z,99639.44
2023-12-17T01:34:27.317Z,99634.00
2023-12-17T01:36:57.023Z,99633.84
2023-12-17T01:39:25.209Z,99627.91
2023-12-17T01:41:53.446Z,99638.53
2023-12-17T01:44:21.770Z,99644.13
2023-12-17T01:46:49.944Z,99656.78
2023-12-17T01:49:18.225Z,99646.38
2023-12-17T01:51:46.479Z,99649.19
2023-12-17T01:54:16.092Z,99656.56
2023-12-17T01:56:44.349Z,99651.28
2023-12-17T01:59:12.589Z,99653.72
2023-12-17T02:01:40.618Z,99653.72
2023-12-17T02:04:08.991Z,99653.41
2023-12-17T02:06:38.970Z,99651.47
2023-12-17T02:09:07.160Z,99645.00
2023-12-17T02:11:36.670Z,99648.41
2023-12-17T02:14:04.775Z,99653.06
2023-12-17T02:16:32.827Z,99652.53
2023-12-17T02:19:02.515Z,99651.47
2023-12-17T02:21:30.825Z,99660.53
2023-12-17T02:24:00.514Z,99658.75
2023-12-17T02:26:28.574Z,99653.56
2023-12-17T02:28:59.343Z,99657.75
2023-12-17T02:31:27.532Z,99655.19
2023-12-17T02:33:55.859Z,99655.19
2023-12-17T02:36:24.209Z,99660.22
2023-12-17T02:38:52.587Z,99657.28
2023-12-17T02:41:22.168Z,99651.94
2023-12-17T02:43:50.309Z,99655.81
2023-12-17T02:46:18.504Z,99650.94
2023-12-17T02:48:47.100Z,99648.16
2023-12-17T02:51:15.988Z,99638.41
2023-12-17T02:53:44.164Z,99629.63
2023-12-17T02:56:12.295Z,99623.16
2023-12-17T02:58:42.044Z,99629.13
2023-12-17T03:01:09.131Z,99622.78
2023-12-17T03:03:37.776Z,99628.72
2023-12-17T03:06:07.823Z,99617.97
2023-12-17T03:08:35.978Z,99611.94
2023-12-17T03:11:04.049Z,99603.47
2023-12-17T03:13:32.402Z,99610.59
2023-12-17T03:16:01.868Z,99604.09
2023-12-17T03:18:30.492Z,99596.84
2023-12-17T03:20:58.721Z,99602.59
2023-12-17T03:23:26.877Z,99599.75
2023-12-17T03:25:55.612Z,99602.41
2023-12-17T03:28:24.032Z,99599.25
2023-12-17T03:30:52.240Z,99589.25
2023-12-17T03:33:21.966Z,99585.41
2023-12-17T03:35:50.153Z,99584.13
2023-12-17T03:38:18.281Z,99590.97
2023-12-17T03:40:46.334Z,99593.41
2023-12-17T03:43:15.333Z,99585.91
2023-12-17T03:45:43.362Z,99590.78
2023-12-17T03:48:11.646Z,99585.41
2023-12-17T03:50:41.222Z,99579.47
2023-12-17T03:53:11.934Z,99584.19
2023-12-17T03:55:40.558Z,99591.50
2023-12-17T03:58:08.650Z,99588.03
2023-12-17T04:00:36.825Z,99587.81
2023-12-17T04:03:05.291Z,99591.34
2023-12-17T04:05:33.451Z,99592.31
2023-12-17T04:08:02.907Z,99593.19
2023-12-17T04:10:30.988Z,99588.53
2023-12-17T04:12:59.430Z,99587.56
2023-12-17T04:15:27.554Z,99590.38
2023-12-17T04:17:55.789Z,99590.91
2023-12-17T04:20:24.393Z,99586.72
2023-12-17T04:22:52.539Z,99586.50
2023-12-17T04:25:22.018Z,99594.41
2023-12-17T04:27:50.270Z,99592.72
2023-12-17T04:30:18.492Z,99582.50
2023-12-17T04:32:46.944Z,99585.44
2023-12-17T04:35:15.155Z,99578.66
2023-12-17T04:37:43.645Z,99571.22
2023-12-17T04:40:13.310Z,99574.97
2023-12-17T04:42:42.878Z,99575.84
2023-12-17T04:45:12.247Z,99570.03
2023-12-17T04:47:40.608Z,99563.53
2023-12-17T04:50:10.004Z,99562.28
2023-12-17T04:52:38.225Z,99566.81
2023-12-17T04:55:07.583Z,99572.34
2023-12-17T04:57:35.728Z,99567.81
2023-12-17T05:00:07.074Z,99562.00
2023-12-17T05:02:35.963Z,99570.84
2023-12-17T05:05:04.571Z,99568.69
2023-12-17T05:07:32.741Z,99557.06
2023-12-17T05:10:00.881Z,99553.34
2023-12-17T05:12:29.092Z,99549.13
2023-12-17T05:14:57.368Z,99549.13
2023-12-17T05:17:27.011Z,99538.09
2023-12-17T05:19:55.488Z,99542.16
2023-12-17T05:22:23.592Z,99543.72
2023-12-17T05:24:51.659Z,99545.25
2023-12-17T05:27:19.812Z,99545.06
2023-12-17T05:29:47.980Z,99539.53
2023-12-17T05:32:16.040Z,99540.25
2023-12-17T05:34:45.519Z,99532.94
2023-12-17T05:37:14.004Z,99533.00
2023-12-17T05:39:42.141Z,99530.31
2023-12-17T05:42:10.293Z,99531.72
2023-12-17T05:44:38.750Z,99522.16
2023-12-17T05:47:07.407Z,99523.84
2023-12-17T05:49:39.608Z,99526.63
2023-12-17T05:52:09.638Z,99522.16
2023-12-17T05:54:42.264Z,99518.69
2023-12-17T05:57:11.047Z,99527.22
2023-12-17T05:59:39.963Z,99527.34
2023-12-17T06:02:09.029Z,99533.47
2023-12-17T06:04:37.320Z,99532.09
2023-12-17T06:07:05.983Z,99541.72
2023-12-17T06:09:35.896Z,99532.31
2023-12-17T06:12:04.178Z,99539.16
2023-12-17T06:14:32.307Z,99539.44
2023-12-17T06:17:00.823Z,99532.66
2023-12-17T06:19:29.003Z,99529.97
2023-12-17T06:21:57.704Z,99526.75
2023-12-17T06:24:25.884Z,99532.25
2023-12-17T06:26:56.929Z,99541.50
2023-12-17T06:29:25.511Z,99542.13
2023-12-17T06:31:55.869Z,99546.38
2023-12-17T06:34:24.074Z,99552.25
2023-12-17T06:36:52.312Z,99552.38
2023-12-17T06:39:20.486Z,99559.94
2023-12-17T06:41:49.311Z,99547.84
2023-12-17T06:44:18.967Z,99548.56
2023-12-17T06:46:47.058Z,99555.31
2023-12-17T06:49:15.334Z,99558.59
2023-12-17T06:51:43.688Z,99560.41
2023-12-17T06:54:11.839Z,99558.78
2023-12-17T06:56:39.974Z,99556.25
2023-12-17T06:59:08.837Z,99557.31
2023-12-17T07:01:40.300Z,99573.81
2023-12-17T07:04:08.434Z,99563.06
2023-12-17T07:06:37.439Z,99564.19
2023-12-17T07:09:06.072Z,99567.88
2023-12-17T07:11:34.218Z,99559.25
2023-12-17T07:14:02.300Z,99562.53
2023-12-17T07:16:30.530Z,99565.50
2023-12-17T07:19:00.079Z,99565.19
2023-12-17T07:21:28.282Z,99560.31
2023-12-17T07:23:57.705Z,99563.69
2023-12-17T07:26:25.927Z,99564.78
2023-12-17T07:28:53.971Z,99565.19
2023-12-17T07:31:22.269Z,99563.41
2023-12-17T07:33:50.670Z,99563.84
2023-12-17T07:36:20.312Z,99563.44
2023-12-17T07:38:48.727Z,99567.41
2023-12-17T07:41:16.936Z,99562.06
2023-12-17T07:43:45.377Z,99559.56
2023-12-17T07:46:13.551Z,99568.94
2023-12-17T07:48:41.855Z,99559.38
2023-12-17T07:51:10.016Z,99554.00
2023-12-17T07:53:39.583Z,99556.09
2023-12-17T07:56:10.540Z,99554.06
2023-12-17T07:58:38.615Z,99554.72
2023-12-17T08:01:10.125Z,99548.25
2023-12-17T08:03:38.525Z,99553.25
2023-12-17T08:06:07.352Z,99542.41
2023-12-17T08:08:35.530Z,99541.19
2023-12-17T08:11:05.314Z,99545.25
2023-12-17T08:13:34.360Z,99534.22
2023-12-17T08:16:02.532Z,99542.09
2023-12-17T08:18:30.641Z,99541.19
2023-12-17T08:20:59.378Z,99542.06
2023-12-17T08:23:28.094Z,99546.28
2023-12-17T08:25:56.203Z,99549.09
2023-12-17T08:28:25.703Z,99551.22
2023-12-17T08:30:53.908Z,99548.50
2023-12-17T08:33:22.114Z,99547.44
2023-12-17T08:35:50.312Z,99545.13
2023-12-17T08:38:18.938Z,99550.31
2023-12-17T08:40:47.458Z,99560.25
2023-12-17T08:43:15.876Z,99555.31
2023-12-17T08:45:45.588Z,99548.25
2023-12-17T08:48:14.555Z,99545.84
2023-12-17T08:50:42.957Z,99552.09
2023-12-17T08:53:11.244Z,99546.13
2023-12-17T08:55:39.502Z,99544.38
2023-12-17T08:58:07.675Z,99548.56
2023-12-17T09:00:36.455Z,99551.97
2023-12-17T09:03:06.762Z,99552.94
2023-12-17T09:05:36.471Z,99557.59
2023-12-17T09:08:05.890Z,99547.78
2023-12-17T09:10:34.296Z,99549.09
2023-12-17T09:13:02.544Z,99555.41
2023-12-17T09:15:31.323Z,99542.44
2023-12-17T09:18:00.171Z,99549.47
2023-12-17T09:20:29.770Z,99547.31
2023-12-17T09:22:58.175Z,99546.69
2023-12-17T09:25:26.661Z,99546.75
2023-12-17T09:27:56.886Z,99542.28
2023-12-17T09:30:25.228Z,99548.09
2023-12-17T09:32:53.759Z,99548.03
2023-12-17T09:35:22.658Z,99546.22
2023-12-17T09:37:52.485Z,99546.56
2023-12-17T09:40:20.709Z,99547.56
2023-12-17T09:42:53.466Z,99547.16
2023-12-17T09:45:22.029Z,99546.53
2023-12-17T09:47:52.775Z,99541.19
2023-12-17T09:50:20.986Z,99544.09
2023-12-17T09:52:49.130Z,99547.81
2023-12-17T09:55:18.805Z,99533.94
2023-12-17T09:57:46.944Z,99540.47
2023-12-17T10:00:16.296Z,99541.94
2023-12-17T10:02:44.414Z,99531.34
2023-12-17T10:05:12.551Z,99528.59
2023-12-17T10:07:41.448Z,99534.44
2023-12-17T10:10:10.607Z,99536.19
2023-12-17T10:12:40.441Z,99535.47
2023-12-17T10:15:12.097Z,99522.84
2023-12-17T10:17:40.950Z,99528.31
2023-12-17T10:20:10.281Z,99532.22
2023-12-17T10:22:38.510Z,99527.53
2023-12-17T10:25:07.625Z,99526.72
2023-12-17T10:27:35.867Z,99519.78
2023-12-17T10:30:07.714Z,99523.06
2023-12-17T10:32:35.989Z,99514.47
2023-12-17T10:35:04.512Z,99527.75
2023-12-17T10:37:33.138Z,99519.75
2023-12-17T10:40:03.564Z,99524.47
2023-12-17T10:42:31.750Z,99519.81
2023-12-17T10:45:00.326Z,99520.00
2023-12-17T10:47:29.887Z,99517.81
2023-12-17T10:49:59.087Z,99523.94
2023-12-17T10:52:27.672Z,99527.31
2023-12-17T10:54:56.108Z,99503.47
2023-12-17T10:57:26.041Z,99502.59
2023-12-17T10:59:54.339Z,99503.34
2023-12-17T11:02:24.103Z,99495.47
2023-12-17T11:04:57.851Z,99498.13
2023-12-17T11:07:35.006Z,99503.19
2023-12-17T11:10:08.106Z,99495.22
2023-12-17T11:12:39.517Z,99498.47
2023-12-17T11:15:08.939Z,99487.22
2023-12-17T11:17:39.426Z,99486.38
2023-12-17T11:20:11.821Z,99475.19
2023-12-17T11:22:40.148Z,99471.28
2023-12-17T11:25:11.356Z,99475.91
2023-12-17T11:27:40.027Z,99469.44
2023-12-17T11:30:28.474Z,99470.47
2023-12-17T11:32:57.959Z,99470.34
2023-12-17T11:35:27.924Z,99467.28
2023-12-17T11:37:56.067Z,99459.97
2023-12-17T11:40:24.267Z,99468.78
2023-12-17T11:43:00.567Z,99459.91
2023-12-17T11:45:38.488Z,99460.91
2023-12-17T11:48:11.773Z,99454.16
2023-12-17T11:50:46.591Z,99468.44
2023-12-17T11:54:19.343Z,99461.31
2023-12-17T11:56:48.835Z,99456.66
2023-12-17T11:59:17.573Z,99460.97
2023-12-17T12:01:48.461Z,99463.50
2023-12-17T12:04:16.644Z,99456.72
2023-12-17T12:06:46.513Z,99463.56
2023-12-17T12:09:20.705Z,99457.94
2023-12-17T12:11:49.390Z,99452.69
2023-12-17T12:14:18.195Z,99453.25
2023-12-17T12:16:46.609Z,99451.28
2023-12-17T12:19:19.824Z,99452.81
2023-12-17T12:21:53.671Z,99448.00
2023-12-17T12:24:22.516Z,99438.59
2023-12-17T12:26:52.039Z,99441.84
2023-12-17T12:29:20.438Z,99439.63
2023-12-17T12:31:53.085Z,99436.38
2023-12-17T12:34:22.070Z,99431.16
2023-12-17T12:36:50.555Z,99422.44
2023-12-17T12:39:21.388Z,99427.13
2023-12-17T12:41:52.006Z,99415.16
2023-12-17T12:44:20.710Z,99414.34
2023-12-17T12:46:50.107Z,99415.09
2023-12-17T12:49:19.888Z,99420.56
2023-12-17T12:51:49.416Z,99409.31
2023-12-17T12:54:19.542Z,99407.56
2023-12-17T12:56:48.330Z,99404.03
2023-12-17T12:59:23.200Z,99401.88
2023-12-17T13:01:53.973Z,99398.81
2023-12-17T13:04:22.251Z,99384.59
2023-12-17T13:06:50.584Z,99386.91
2023-12-17T13:09:21.647Z,99379.59
2023-12-17T13:11:51.279Z,99377.78
2023-12-17T13:14:20.865Z,99366.34
2023-12-17T13:16:51.437Z,99359.81
2023-12-17T13:19:20.261Z,99364.50
2023-12-17T13:21:50.109Z,99355.41
2023-12-17T13:24:22.362Z,99351.34
2023-12-17T13:26:50.652Z,99351.88
2023-12-17T13:29:18.829Z,99353.44
2023-12-17T13:31:47.963Z,99338.19
2023-12-17T13:34:21.205Z,99339.19
2023-12-17T13:36:50.642Z,99339.97
2023-12-17T13:39:20.301Z,99330.03
2023-12-17T13:41:55.886Z,99335.91
2023-12-17T13:44:28.941Z,99330.22
2023-12-17T13:46:59.415Z,99328.75
2023-12-17T13:49:27.747Z,99327.03
2023-12-17T13:51:57.546Z,99308.97
2023-12-17T13:54:28.793Z,99316.19
2023-12-17T13:56:58.280Z,99322.16
2023-12-17T13:59:26.489Z,99314.53
2023-12-17T14:01:54.538Z,99310.47
2023-12-17T14:04:22.913Z,99304.88
2023-12-17T14:06:51.319Z,99313.81
2023-12-17T14:09:21.865Z,99308.56
2023-12-17T14:11:51.800Z,99309.91
2023-12-17T14:14:19.911Z,99313.78
2023-12-17T14:16:48.322Z,99316.59
2023-12-17T14:19:16.400Z,99300.22
2023-12-17T14:21:48.655Z,99303.34
2023-12-17T14:24:20.714Z,99304.31
2023-12-17T14:26:49.002Z,99309.19
2023-12-17T14:29:18.500Z,99309.50
2023-12-17T14:31:46.931Z,99306.16
2023-12-17T14:34:15.240Z,99303.66
2023-12-17T14:36:46.095Z,99295.34
2023-12-17T14:39:14.826Z,99297.34
2023-12-17T14:41:43.225Z,99290.81
2023-12-17T14:44:14.625Z,99286.44
2023-12-17T14:46:44.330Z,99293.06
2023-12-17T14:49:12.672Z,99290.91
2023-12-17T14:51:41.092Z,99283.47
2023-12-17T14:54:10.213Z,99293.22
2023-12-17T14:56:38.413Z,99288.94
2023-12-17T14:59:07.129Z,99281.94
2023-12-17T15:01:36.327Z,99280.34
2023-12-17T15:04:06.696Z,99287.44
2023-12-17T15:06:34.973Z,99288.38
2023-12-17T15:09:04.921Z,99278.78
2023-12-17T15:11:34.750Z,99275.00
2023-12-17T15:14:03.693Z,99282.88
2023-12-17T15:16:32.386Z,99289.00
2023-12-17T15:19:02.803Z,99276.81
2023-12-17T15:21:32.709Z,99285.03
2023-12-17T15:24:00.940Z,99278.78
2023-12-17T15:26:29.302Z,99288.66
2023-12-17T15:28:57.526Z,99285.41
2023-12-17T15:31:26.177Z,99279.34
2023-12-17T15:33:54.797Z,99277.84
2023-12-17T15:36:23.063Z,99290.09
2023-12-17T15:38:53.635Z,99286.47
2023-12-17T15:41:23.047Z,99287.34
2023-12-17T15:43:52.106Z,99290.59
2023-12-17T15:46:22.436Z,99293.75
2023-12-17T15:48:50.949Z,99291.63
2023-12-17T15:51:20.286Z,99287.22
2023-12-17T15:53:51.119Z,99288.72
2023-12-17T15:56:21.031Z,99288.91
2023-12-17T15:58:49.950Z,99285.47
2023-12-17T16:01:19.585Z,99290.25
2023-12-17T16:03:49.213Z,99282.00
2023-12-17T16:06:18.541Z,99283.75
2023-12-17T16:08:46.790Z,99281.38
2023-12-17T16:11:14.960Z,99294.78
2023-12-17T16:13:46.177Z,99288.50
2023-12-17T16:16:24.671Z,99288.44
2023-12-17T16:18:54.951Z,99296.88
2023-12-17T16:21:24.337Z,99299.09
2023-12-17T16:23:52.997Z,99290.94
2023-12-17T16:26:21.225Z,99303.13
2023-12-17T16:28:52.677Z,99297.13
2023-12-17T16:31:20.988Z,99308.00
2023-12-17T16:33:49.384Z,99291.84
2023-12-17T16:36:18.256Z,99298.56
2023-12-17T16:38:46.427Z,99295.66
2023-12-17T16:41:14.536Z,99297.00
2023-12-17T16:43:42.784Z,99288.81
2023-12-17T16:46:13.263Z,99293.47
2023-12-17T16:48:41.521Z,99282.34
2023-12-17T16:51:26.075Z,99285.66
2023-12-17T16:53:54.262Z,99292.09
2023-12-17T16:56:23.864Z,99289.81
2023-12-17T16:58:53.604Z,99292.13
2023-12-17T17:01:23.488Z,99294.88
2023-12-17T17:03:51.680Z,99290.50
2023-12-17T17:06:19.860Z,99281.81
2023-12-17T17:08:48.698Z,99289.53
2023-12-17T17:11:16.870Z,99279.53
2023-12-17T17:13:45.266Z,99286.38
2023-12-17T17:16:13.844Z,99280.72
2023-12-17T17:18:43.648Z,99278.22
2023-12-17T17:21:12.521Z,99277.22
2023-12-17T17:23:40.913Z,99290.69
2023-12-17T17:26:09.464Z,99288.56
2023-12-17T17:28:39.757Z,99287.81
2023-12-17T17:31:09.498Z,99287.53
2023-12-17T17:33:38.345Z,99290.47
2023-12-17T17:36:10.596Z,99281.41
2023-12-17T17:38:40.225Z,99288.09
2023-12-17T17:41:08.828Z,99289.91
2023-12-17T17:43:36.971Z,99287.63
2023-12-17T17:46:05.363Z,99289.19
2023-12-17T17:48:33.905Z,99289.91
2023-12-17T17:51:05.110Z,99291.09
2023-12-17T17:53:35.918Z,99290.69
2023-12-17T17:56:05.087Z,99288.63
2023-12-17T17:58:33.635Z,99286.47
2023-12-17T18:01:01.796Z,99287.16
2023-12-17T18:03:30.007Z,99282.94
2023-12-17T18:05:59.818Z,99290.19
2023-12-17T18:08:28.473Z,99293.72
2023-12-17T18:10:59.364Z,99295.69
2023-12-17T18:13:48.932Z,99292.44
2023-12-17T18:16:20.279Z,99292.19
2023-12-17T18:18:51.727Z,99293.72
2023-12-17T18:21:26.136Z,99296.56
2023-12-17T18:23:54.482Z,99292.91
2023-12-17T18:26:24.420Z,99290.75
2023-12-17T18:28:55.294Z,99308.38
2023-12-17T18:31:23.864Z,99297.25
2023-12-17T18:33:57.803Z,99303.28
2023-12-17T18:36:26.409Z,99301.41
2023-12-17T18:38:54.448Z,99291.50
2023-12-17T18:41:22.808Z,99300.50
2023-12-17T18:43:52.346Z,99299.91
2023-12-17T18:46:21.114Z,99297.88
2023-12-17T18:48:50.272Z,99290.34
2023-12-17T18:51:18.863Z,99293.03
2023-12-17T18:53:49.421Z,99297.56
2023-12-17T18:56:17.715Z,99290.13
2023-12-17T18:58:47.171Z,99280.84
2023-12-17T19:01:17.001Z,99284.03
2023-12-17T19:03:45.262Z,99278.78
2023-12-17T19:06:19.712Z,99284.91
2023-12-17T19:08:51.351Z,99275.69
2023-12-17T19:11:22.981Z,99273.91
2023-12-17T19:13:51.153Z,99273.78
2023-12-17T19:16:20.777Z,99278.25
2023-12-17T19:18:49.153Z,99275.56
2023-12-17T19:21:17.942Z,99276.22
2023-12-17T19:23:49.060Z,99274.94
2023-12-17T19:26:17.559Z,99263.66
2023-12-17T19:28:48.631Z,99276.31
2023-12-17T19:31:18.855Z,99278.06
2023-12-17T19:33:49.388Z,99274.59
2023-12-17T19:36:27.628Z,99272.38
2023-12-17T19:39:00.126Z,99274.16
2023-12-17T19:41:28.306Z,99270.66
2023-12-17T19:43:58.309Z,99266.97
2023-12-17T19:46:26.454Z,99267.59
2023-12-17T19:48:56.050Z,99261.47
2023-12-17T19:51:25.613Z,99245.84
2023-12-17T19:53:53.757Z,99254.94
2023-12-17T19:56:23.583Z,99252.72
2023-12-17T19:58:51.984Z,99250.19
2023-12-17T20:01:20.144Z,99242.81
2023-12-17T20:03:50.571Z,99252.31
2023-12-17T20:06:23.356Z,99239.38
2023-12-17T20:08:52.452Z,99241.50
2023-12-17T20:11:20.664Z,99245.88
2023-12-17T20:13:49.147Z,99248.28
2023-12-17T20:16:17.250Z,99240.50
2023-12-17T20:18:45.913Z,99233.97
2023-12-17T20:21:14.185Z,99242.00
2023-12-17T20:23:48.402Z,99240.28
2023-12-17T20:26:16.479Z,99234.13
2023-12-17T20:28:44.575Z,99231.03
2023-12-17T20:31:14.873Z,99235.88
2023-12-17T20:33:43.195Z,99239.25
2023-12-17T20:36:13.239Z,99241.69
2023-12-17T20:38:43.207Z,99239.88
2023-12-17T20:41:11.321Z,99239.03
2023-12-17T20:43:39.389Z,99246.44
2023-12-17T20:46:08.406Z,99240.50
2023-12-17T20:48:38.217Z,99245.69
2023-12-17T20:51:06.595Z,99245.69
2023-12-17T20:53:34.946Z,99241.56
2023-12-17T20:56:05.063Z,99236.16
2023-12-17T20:58:33.271Z,99228.25
2023-12-17T21:01:01.618Z,99233.69
2023-12-17T21:03:29.823Z,99239.00
2023-12-17T21:06:03.609Z,99231.72
2023-12-17T21:08:31.921Z,99234.50
2023-12-17T21:11:00.015Z,99236.28
2023-12-17T21:13:36.885Z,99225.31
2023-12-17T21:16:05.762Z,99228.63
2023-12-17T21:18:34.335Z,99222.50
2023-12-17T21:21:02.563Z,99215.25
2023-12-17T21:23:30.977Z,99215.03
2023-12-17T21:25:59.129Z,99214.34
2023-12-17T21:28:29.650Z,99209.94
2023-12-17T21:31:00.254Z,99221.31
2023-12-17T21:33:32.194Z,99214.88
2023-12-17T21:36:00.662Z,99223.91
2023-12-17T21:38:28.846Z,99210.59
2023-12-17T21:40:57.476Z,99203.69
2023-12-17T21:43:26.720Z,99214.72
2023-12-17T21:45:55.571Z,99208.06
2023-12-17T21:48:25.217Z,99210.34
2023-12-17T21:50:54.932Z,99208.25
2023-12-17T21:53:25.615Z,99206.13
2023-12-17T21:55:53.861Z,99213.00
2023-12-17T21:58:22.247Z,99213.19
2023-12-17T22:00:51.107Z,99213.00
2023-12-17T22:03:19.522Z,99212.94
2023-12-17T22:05:50.107Z,99205.53
2023-12-17T22:08:18.695Z,99209.19
2023-12-17T22:10:46.977Z,99214.88
2023-12-17T22:13:15.095Z,99211.72
2023-12-17T22:15:43.610Z,99207.47
2023-12-17T22:18:14.430Z,99202.59
2023-12-17T22:20:42.725Z,99202.19
2023-12-17T22:23:13.362Z,99203.78
2023-12-17T22:25:41.499Z,99203.66
2023-12-17T22:28:10.235Z,99210.91
2023-12-17T22:30:38.733Z,99208.47
2023-12-17T22:33:07.536Z,99206.06
2023-12-17T22:35:38.296Z,99202.41
2023-12-17T22:38:07.654Z,99204.53
2023-12-17T22:40:37.563Z,99200.19
2023-12-17T22:43:07.963Z,99193.38
2023-12-17T22:45:36.027Z,99201.03
2023-12-17T22:48:04.330Z,99195.53
2023-12-17T22:50:32.469Z,99197.34
2023-12-17T22:53:00.703Z,99189.03
2023-12-17T22:55:29.162Z,99186.44
2023-12-17T22:57:58.636Z,99187.91
2023-12-17T23:00:26.809Z,99181.97
2023-12-17T23:02:55.033Z,99174.00
2023-12-17T23:05:23.416Z,99178.50
2023-12-17T23:07:51.609Z,99173.41
2023-12-17T23:10:19.689Z,99174.59
2023-12-17T23:12:47.867Z,99177.91
2023-12-17T23:15:17.560Z,99179.03
2023-12-17T23:17:46.397Z,99183.09
2023-12-17T23:20:14.996Z,99179.03
2023-12-17T23:22:43.521Z,99175.19
2023-12-17T23:25:13.101Z,99165.53
2023-12-17T23:27:42.332Z,99160.78
2023-12-17T23:30:11.867Z,99165.06
2023-12-17T23:32:41.540Z,99158.34
2023-12-17T23:35:10.076Z,99161.53
2023-12-17T23:37:38.713Z,99160.34
2023-12-17T23:40:08.256Z,99155.94
2023-12-17T23:42:36.577Z,99146.38
2023-12-17T23:45:07.061Z,99147.25
2023-12-17T23:47:36.258Z,99146.09
2023-12-17T23:50:06.461Z,99150.63
2023-12-17T23:52:35.275Z,99143.50
2023-12-17T23:55:03.979Z,99140.66
2023-12-17T23:57:32.196Z,99146.22
